createdAt,value
2019-02-08T00:00:20.499Z,1.92
2019-02-08T00:02:49.083Z,1.92
2019-02-08T00:05:17.723Z,1.85
2019-02-08T00:07:46.406Z,1.80
2019-02-08T00:10:17.144Z,1.72
2019-02-08T00:12:45.732Z,1.76
2019-02-08T00:15:23.021Z,1.77
2019-02-08T00:17:51.607Z,1.69
2019-02-08T00:20:21.091Z,1.67
2019-02-08T00:22:49.692Z,1.69
2019-02-08T00:25:24.172Z,1.64
2019-02-08T00:27:52.763Z,1.62
2019-02-08T00:30:25.958Z,1.53
2019-02-08T00:32:54.651Z,1.41
2019-02-08T00:35:23.273Z,1.34
2019-02-08T00:37:51.895Z,1.29
2019-02-08T00:40:21.975Z,1.31
2019-02-08T00:42:50.560Z,1.32
2019-02-08T00:45:20.430Z,1.26
2019-02-08T00:47:49.009Z,1.31
2019-02-08T00:50:26.848Z,1.28
2019-02-08T00:52:55.490Z,1.20
2019-02-08T00:55:24.129Z,1.14
2019-02-08T00:57:52.711Z,1.08
2019-02-08T01:00:21.464Z,1.10
2019-02-08T01:02:51.526Z,1.15
2019-02-08T01:05:28.384Z,1.15
2019-02-08T01:07:57.030Z,1.08
2019-02-08T01:10:31.068Z,1.13
2019-02-08T01:13:00.501Z,1.12
2019-02-08T01:15:30.527Z,1.19
2019-02-08T01:18:02.076Z,1.23
2019-02-08T01:20:30.660Z,1.22
2019-02-08T01:22:59.253Z,1.25
2019-02-08T01:25:29.139Z,1.17
2019-02-08T01:27:57.724Z,1.06
2019-02-08T01:30:29.429Z,1.02
2019-02-08T01:32:58.014Z,1.04
2019-02-08T01:35:26.675Z,0.96
2019-02-08T01:37:55.360Z,1.02
2019-02-08T01:40:26.152Z,1.04
2019-02-08T01:42:54.736Z,1.08
2019-02-08T01:45:25.237Z,1.07
2019-02-08T01:47:53.822Z,0.97
2019-02-08T01:50:24.206Z,0.97
2019-02-08T01:52:52.794Z,0.98
2019-02-08T01:55:21.381Z,0.88
2019-02-08T01:57:50.801Z,0.87
2019-02-08T02:00:31.265Z,0.77
2019-02-08T02:02:59.953Z,0.71
2019-02-08T02:05:28.640Z,0.83
2019-02-08T02:07:57.222Z,0.84
2019-02-08T02:10:33.307Z,0.83
2019-02-08T02:13:01.898Z,0.79
2019-02-08T02:15:30.500Z,0.74
2019-02-08T02:17:59.090Z,0.70
2019-02-08T02:20:29.902Z,0.63
2019-02-08T02:22:58.487Z,0.63
2019-02-08T02:25:27.096Z,0.67
2019-02-08T02:27:55.690Z,0.66
2019-02-08T02:30:32.314Z,0.63
2019-02-08T02:33:00.895Z,0.68
2019-02-08T02:35:29.514Z,0.58
2019-02-08T02:37:58.144Z,0.57
2019-02-08T02:40:26.814Z,0.58
2019-02-08T02:42:55.395Z,0.73
2019-02-08T02:45:26.120Z,0.78
2019-02-08T02:47:54.714Z,0.68
2019-02-08T02:50:23.299Z,0.61
2019-02-08T02:52:51.922Z,0.67
2019-02-08T02:55:25.229Z,0.49
2019-02-08T02:57:53.863Z,0.53
2019-02-08T03:00:25.302Z,0.51
2019-02-08T03:02:53.941Z,0.59
2019-02-08T03:05:22.602Z,0.67
2019-02-08T03:07:51.184Z,0.64
2019-02-08T03:10:21.566Z,0.67
2019-02-08T03:12:50.150Z,0.69
2019-02-08T03:15:20.237Z,0.58
2019-02-08T03:17:48.826Z,0.45
2019-02-08T03:20:19.005Z,0.55
2019-02-08T03:22:47.687Z,0.49
2019-02-08T03:25:21.781Z,0.43
2019-02-08T03:27:50.380Z,0.44
2019-02-08T03:30:33.549Z,0.39
2019-02-08T03:33:02.116Z,0.48
2019-02-08T03:35:30.755Z,0.41
2019-02-08T03:37:59.374Z,0.15
2019-02-08T03:40:29.796Z,0.27
2019-02-08T03:42:58.376Z,0.23
2019-02-08T03:45:28.526Z,0.18
2019-02-08T03:47:57.110Z,0.12
2019-02-08T03:50:25.691Z,0.08
2019-02-08T03:52:54.864Z,0.18
2019-02-08T03:55:24.154Z,0.16
2019-02-08T03:57:52.731Z,0.16
2019-02-08T04:00:28.092Z,0.23
2019-02-08T04:02:56.770Z,0.21
2019-02-08T04:05:25.352Z,0.23
2019-02-08T04:07:54.076Z,0.20
2019-02-08T04:10:22.731Z,0.24
2019-02-08T04:12:51.347Z,0.22
2019-02-08T04:15:24.223Z,0.20
2019-02-08T04:17:52.805Z,0.22
2019-02-08T04:20:26.299Z,0.21
2019-02-08T04:22:55.824Z,0.22
2019-02-08T04:25:24.952Z,0.23
2019-02-08T04:27:53.635Z,0.28
2019-02-08T04:30:27.164Z,0.22
2019-02-08T04:32:55.749Z,0.21
2019-02-08T04:35:24.387Z,0.12
2019-02-08T04:37:52.971Z,0.19
2019-02-08T04:40:23.149Z,0.26
2019-02-08T04:42:51.774Z,0.28
2019-02-08T04:45:20.539Z,0.29
2019-02-08T04:47:49.112Z,0.29
2019-02-08T04:50:20.817Z,0.15
2019-02-08T04:52:49.400Z,0.23
2019-02-08T04:55:18.101Z,0.20
2019-02-08T04:57:46.680Z,0.19
2019-02-08T05:00:23.614Z,0.15
2019-02-08T05:02:52.195Z,0.14
2019-02-08T05:05:20.785Z,0.08
2019-02-08T05:07:50.543Z,0.13
2019-02-08T05:10:23.956Z,0.12
2019-02-08T05:12:52.577Z,0.20
2019-02-08T05:15:22.985Z,0.17
2019-02-08T05:17:51.503Z,0.13
2019-02-08T05:20:22.181Z,0.13
2019-02-08T05:22:50.768Z,0.03
2019-02-08T05:25:19.351Z,0.07
2019-02-08T05:27:47.936Z,0.15
2019-02-08T05:30:34.297Z,0.22
2019-02-08T05:33:02.887Z,0.21
2019-02-08T05:35:31.525Z,0.09
2019-02-08T05:41:40.486Z,0.06
2019-02-08T05:44:09.597Z,0.01
2019-02-08T05:46:38.230Z,-0.07
2019-02-08T05:49:08.011Z,-0.03
2019-02-08T05:51:36.595Z,-0.04
2019-02-08T05:54:05.231Z,-0.03
2019-02-08T05:56:33.816Z,0.05
2019-02-08T05:59:02.401Z,0.24
2019-02-08T06:01:30.984Z,0.16
2019-02-08T06:03:59.560Z,0.22
2019-02-08T06:06:28.135Z,0.19
2019-02-08T06:08:56.720Z,0.25
2019-02-08T06:11:25.310Z,0.27
2019-02-08T06:13:53.907Z,0.18
2019-02-08T06:16:22.577Z,0.20
2019-02-08T06:19:04.932Z,-0.29
2019-02-08T06:21:33.608Z,-0.39
2019-02-08T06:24:02.194Z,-0.36
2019-02-08T06:26:30.841Z,-0.31
2019-02-08T06:28:59.428Z,-0.34
2019-02-08T06:31:28.008Z,-0.23
2019-02-08T06:33:56.705Z,-0.14
2019-02-08T06:36:25.289Z,-0.05
2019-02-08T06:38:53.868Z,-0.05
2019-02-08T06:41:22.457Z,-0.03
2019-02-08T06:43:51.044Z,0.01
2019-02-08T06:46:19.619Z,0.05
2019-02-08T06:48:48.197Z,0.03
2019-02-08T06:51:16.779Z,0.01
2019-02-08T06:53:45.401Z,-0.01
2019-02-08T06:56:15.629Z,-0.07
2019-02-08T06:58:48.825Z,-0.04
2019-02-08T07:01:22.352Z,0.01
2019-02-08T07:03:52.504Z,-0.08
2019-02-08T07:06:25.451Z,0.08
2019-02-08T07:09:10.548Z,0.13
2019-02-08T07:11:40.703Z,0.03
2019-02-08T07:14:13.300Z,0.08
2019-02-08T07:16:59.904Z,0.12
2019-02-08T07:19:42.188Z,0.07
2019-02-08T07:22:28.440Z,0.19
2019-02-08T07:24:58.611Z,0.05
2019-02-08T07:27:29.568Z,0.08
2019-02-08T07:29:59.795Z,0.13
2019-02-08T07:32:32.688Z,0.22
2019-02-08T07:35:05.680Z,0.14
2019-02-08T07:37:48.236Z,0.22
2019-02-08T07:40:42.738Z,0.29
2019-02-08T07:43:13.095Z,0.44
2019-02-08T07:45:52.248Z,0.38
2019-02-08T07:48:22.400Z,0.49
2019-02-08T07:50:55.588Z,0.55
2019-02-08T07:53:31.641Z,0.55
2019-02-08T07:56:10.716Z,0.52
2019-02-08T07:58:40.879Z,0.64
2019-02-08T08:01:15.007Z,0.66
2019-02-08T08:03:45.167Z,0.66
2019-02-08T08:06:33.668Z,0.66
2019-02-08T08:09:09.596Z,0.60
2019-02-08T08:11:48.332Z,0.68
2019-02-08T08:14:30.637Z,0.79
2019-02-08T08:17:06.950Z,0.92
2019-02-08T08:19:40.064Z,0.99
2019-02-08T08:22:20.105Z,1.11
2019-02-08T08:25:06.518Z,1.06
2019-02-08T08:27:48.944Z,1.19
2019-02-08T08:30:25.475Z,1.29
2019-02-08T08:32:57.279Z,1.27
2019-02-08T08:35:32.005Z,1.37
2019-02-08T08:38:18.630Z,1.40
2019-02-08T08:41:02.203Z,1.42
2019-02-08T08:43:49.093Z,1.28
2019-02-08T08:46:29.510Z,1.28
2019-02-08T08:49:07.078Z,1.38
2019-02-08T08:51:44.899Z,1.35
2019-02-08T08:54:42.615Z,1.37
2019-02-08T08:57:23.380Z,1.36
2019-02-08T09:00:16.255Z,1.38
2019-02-08T09:03:07.391Z,1.49
2019-02-08T09:05:45.030Z,1.59
2019-02-08T09:08:25.697Z,1.74
2019-02-08T09:11:09.217Z,1.82
2019-02-08T09:14:08.255Z,1.88
2019-02-08T09:16:49.051Z,2.01
2019-02-08T09:19:43.409Z,2.07
2019-02-08T09:22:33.007Z,2.07
2019-02-08T09:25:16.634Z,2.14
2019-02-08T09:28:17.250Z,2.24
2019-02-08T09:31:10.119Z,2.28
2019-02-08T09:33:58.596Z,2.17
2019-02-08T09:36:59.243Z,2.23
2019-02-08T09:39:51.965Z,2.22
2019-02-08T09:42:57.185Z,2.28
2019-02-08T09:45:38.565Z,2.32
2019-02-08T09:48:39.989Z,2.39
2019-02-08T09:51:36.034Z,2.45
2019-02-08T09:54:42.301Z,2.44
2019-02-08T09:57:48.204Z,2.47
2019-02-08T10:00:28.936Z,2.56
2019-02-08T10:03:27.723Z,2.60
2019-02-08T10:06:22.116Z,2.51
2019-02-08T10:09:17.925Z,2.62
2019-02-08T10:11:52.115Z,2.74
2019-02-08T10:14:29.915Z,2.55
2019-02-08T10:17:16.495Z,2.54
2019-02-08T10:20:03.491Z,2.56
2019-02-08T10:23:08.512Z,2.64
2019-02-08T10:26:05.852Z,2.68
2019-02-08T10:28:52.780Z,2.89
2019-02-08T10:31:27.313Z,2.91
2019-02-08T10:34:33.843Z,2.93
2019-02-08T10:37:38.817Z,3.07
2019-02-08T10:40:40.308Z,3.31
2019-02-08T10:43:12.965Z,3.23
2019-02-08T10:46:13.741Z,3.41
2019-02-08T10:48:54.492Z,3.35
2019-02-08T10:51:51.910Z,3.52
2019-02-08T10:54:42.595Z,3.43
2019-02-08T10:57:31.883Z,3.39
2019-02-08T11:00:25.649Z,3.62
2019-02-08T11:03:13.851Z,3.54
2019-02-08T11:06:19.835Z,3.76
2019-02-08T11:09:15.853Z,3.79
2019-02-08T11:12:11.687Z,3.80
2019-02-08T11:15:07.511Z,3.90
2019-02-08T11:17:54.047Z,4.01
2019-02-08T11:20:22.628Z,4.22
2019-02-08T11:22:51.211Z,4.32
2019-02-08T11:25:19.821Z,4.53
2019-02-08T11:27:48.408Z,4.52
2019-02-08T11:30:17.787Z,4.59
2019-02-08T11:32:46.415Z,4.52
2019-02-08T11:35:15.555Z,4.59
2019-02-08T11:37:44.490Z,4.54
2019-02-08T11:40:16.187Z,4.71
2019-02-08T11:42:44.773Z,4.78
2019-02-08T11:45:15.005Z,4.72
2019-02-08T11:47:43.591Z,4.63
2019-02-08T11:50:20.750Z,4.53
2019-02-08T11:52:49.327Z,4.63
2019-02-08T11:55:17.908Z,4.92
2019-02-08T11:57:46.487Z,4.92
2019-02-08T12:00:23.102Z,5.07
2019-02-08T12:02:51.682Z,5.16
2019-02-08T12:05:20.351Z,5.15
2019-02-08T12:07:48.926Z,5.11
2019-02-08T12:10:17.503Z,5.13
2019-02-08T12:12:46.085Z,5.33
2019-02-08T12:15:17.368Z,5.26
2019-02-08T12:17:45.944Z,5.39
2019-02-08T12:20:14.522Z,5.51
2019-02-08T12:22:43.103Z,5.63
2019-02-08T12:25:16.144Z,5.73
2019-02-08T12:27:44.728Z,5.66
2019-02-08T12:30:31.302Z,5.61
2019-02-08T12:32:59.912Z,5.48
2019-02-08T12:35:28.501Z,5.53
2019-02-08T12:37:57.130Z,5.59
2019-02-08T12:40:25.750Z,5.64
2019-02-08T12:42:54.331Z,5.70
2019-02-08T12:45:22.912Z,5.53
2019-02-08T12:47:51.496Z,5.64
2019-02-08T12:50:20.072Z,5.81
2019-02-08T12:52:48.653Z,5.87
2019-02-08T12:55:18.781Z,6.06
2019-02-08T12:57:47.361Z,6.06
2019-02-08T13:00:18.539Z,6.18
2019-02-08T13:02:47.123Z,6.25
2019-02-08T13:05:16.811Z,6.08
2019-02-08T13:07:45.394Z,5.97
2019-02-08T13:10:19.718Z,5.88
2019-02-08T13:12:48.299Z,5.85
2019-02-08T13:15:17.005Z,5.90
2019-02-08T13:17:45.587Z,5.70
2019-02-08T13:20:21.969Z,5.57
2019-02-08T13:22:50.584Z,5.67
2019-02-08T13:25:19.165Z,5.68
2019-02-08T13:27:48.848Z,5.94
2019-02-08T13:30:26.019Z,5.89
2019-02-08T13:32:54.604Z,5.67
2019-02-08T13:35:23.189Z,5.60
2019-02-08T13:37:51.774Z,5.71
2019-02-08T13:40:27.706Z,5.86
2019-02-08T13:42:56.321Z,5.72
2019-02-08T13:45:25.090Z,5.64
2019-02-08T13:47:53.664Z,5.78
2019-02-08T13:50:30.527Z,6.02
2019-02-08T13:52:59.325Z,5.88
2019-02-08T13:55:27.942Z,5.75
2019-02-08T13:57:56.524Z,5.63
2019-02-08T14:00:30.425Z,5.58
2019-02-08T14:02:59.014Z,5.52
2019-02-08T14:05:27.604Z,5.68
2019-02-08T14:07:56.175Z,5.56
2019-02-08T14:10:24.759Z,5.47
2019-02-08T14:12:53.453Z,5.59
2019-02-08T14:15:23.874Z,5.64
2019-02-08T14:17:52.461Z,5.66
2019-02-08T14:20:25.641Z,5.62
2019-02-08T14:22:54.214Z,5.61
2019-02-08T14:25:22.821Z,5.71
2019-02-08T14:27:51.401Z,5.85
2019-02-08T14:30:31.591Z,5.95
2019-02-08T14:33:00.170Z,5.92
2019-02-08T14:35:28.854Z,5.75
2019-02-08T14:37:58.714Z,5.70
2019-02-08T14:40:28.896Z,5.64
2019-02-08T14:42:57.478Z,5.50
2019-02-08T14:45:26.154Z,5.60
2019-02-08T14:47:54.792Z,5.44
2019-02-08T14:50:28.549Z,5.47
2019-02-08T14:52:57.633Z,5.35
2019-02-08T14:55:26.211Z,5.40
2019-02-08T14:57:57.465Z,5.40
2019-02-08T15:00:26.041Z,5.40
2019-02-08T15:02:54.632Z,5.46
2019-02-08T15:05:23.812Z,5.53
2019-02-08T15:07:52.392Z,5.51
2019-02-08T15:10:35.854Z,5.56
2019-02-08T15:13:04.432Z,5.56
2019-02-08T15:15:33.010Z,5.58
2019-02-08T15:18:01.637Z,5.54
2019-02-08T15:20:36.176Z,5.69
2019-02-08T15:23:04.859Z,5.56
2019-02-08T15:25:33.496Z,5.52
2019-02-08T15:28:02.071Z,5.42
2019-02-08T15:30:34.658Z,5.37
2019-02-08T15:33:03.247Z,5.44
2019-02-08T15:35:31.930Z,5.43
2019-02-08T15:38:00.589Z,5.53
2019-02-08T15:40:34.733Z,5.71
2019-02-08T15:43:03.321Z,5.67
2019-02-08T15:45:31.907Z,5.64
2019-02-08T15:48:00.489Z,5.71
2019-02-08T15:50:29.188Z,5.61
2019-02-08T15:52:58.008Z,5.66
2019-02-08T15:55:29.450Z,5.71
2019-02-08T15:57:58.035Z,5.64
2019-02-08T16:00:28.850Z,5.75
2019-02-08T16:02:57.545Z,5.62
2019-02-08T16:05:26.226Z,5.58
2019-02-08T16:07:54.809Z,5.45
2019-02-08T16:10:23.389Z,5.24
2019-02-08T16:12:51.978Z,5.26
2019-02-08T16:15:29.414Z,5.16
2019-02-08T16:17:57.990Z,4.99
2019-02-08T16:20:30.709Z,4.89
2019-02-08T16:23:00.126Z,4.79
2019-02-08T16:25:31.966Z,4.82
2019-02-08T16:28:00.640Z,4.74
2019-02-08T16:30:31.622Z,4.58
2019-02-08T16:33:00.505Z,4.58
2019-02-08T16:35:29.088Z,4.29
2019-02-08T16:37:57.671Z,4.36
2019-02-08T16:40:30.159Z,4.35
2019-02-08T16:42:58.852Z,4.23
2019-02-08T16:45:32.839Z,4.11
2019-02-08T16:48:02.136Z,4.18
2019-02-08T16:50:32.320Z,3.94
2019-02-08T16:53:00.906Z,3.87
2019-02-08T16:55:29.548Z,3.76
2019-02-08T16:57:58.260Z,4.00
2019-02-08T17:00:32.435Z,3.95
2019-02-08T17:03:02.616Z,3.92
2019-02-08T17:05:31.517Z,4.07
2019-02-08T17:08:00.103Z,3.90
2019-02-08T17:10:28.683Z,3.50
2019-02-08T17:12:57.271Z,3.40
2019-02-08T17:15:30.737Z,3.42
2019-02-08T17:17:59.417Z,3.36
2019-02-08T17:20:33.288Z,3.26
2019-02-08T17:23:01.873Z,3.33
2019-02-08T17:25:31.493Z,3.23
2019-02-08T17:28:00.606Z,3.22
2019-02-08T17:30:29.192Z,3.26
2019-02-08T17:32:57.772Z,3.21
2019-02-08T17:35:28.011Z,3.12
2019-02-08T17:37:56.597Z,3.04
2019-02-08T17:40:33.512Z,3.06
2019-02-08T17:43:02.111Z,2.72
2019-02-08T17:45:30.721Z,2.72
2019-02-08T17:48:00.400Z,2.76
2019-02-08T17:50:29.160Z,2.72
2019-02-08T17:52:58.199Z,2.58
2019-02-08T17:55:30.736Z,2.65
2019-02-08T17:58:03.718Z,2.76
2019-02-08T18:00:45.582Z,2.78
2019-02-08T18:03:14.234Z,2.77
2019-02-08T18:05:42.920Z,2.73
2019-02-08T18:08:11.713Z,2.71
2019-02-08T18:10:40.303Z,2.61
2019-02-08T18:13:09.569Z,2.55
2019-02-08T18:15:38.163Z,2.55
2019-02-08T18:18:10.044Z,2.51
2019-02-08T18:20:53.486Z,2.47
2019-02-08T18:23:22.064Z,2.52
2019-02-08T18:25:50.653Z,2.54
2019-02-08T18:28:19.224Z,2.56
2019-02-08T18:30:47.982Z,2.53
2019-02-08T18:33:16.807Z,2.55
2019-02-08T18:35:45.363Z,2.69
2019-02-08T18:38:13.956Z,2.89
2019-02-08T18:40:42.539Z,2.97
2019-02-08T18:43:11.868Z,2.95
2019-02-08T18:45:40.455Z,2.89
2019-02-08T18:48:09.985Z,2.82
2019-02-08T18:50:41.343Z,2.59
2019-02-08T18:53:10.987Z,2.72
2019-02-08T18:55:39.580Z,2.74
2019-02-08T18:58:08.479Z,2.89
2019-02-08T19:00:45.661Z,2.79
2019-02-08T19:03:14.308Z,2.73
2019-02-08T19:05:42.929Z,2.78
2019-02-08T19:08:11.682Z,2.85
2019-02-08T19:10:40.265Z,2.83
2019-02-08T19:13:09.713Z,2.79
2019-02-08T19:15:38.399Z,2.74
2019-02-08T19:18:07.463Z,2.82
2019-02-08T19:20:36.083Z,2.89
2019-02-08T19:23:04.964Z,2.96
2019-02-08T19:25:39.020Z,3.05
2019-02-08T19:28:08.039Z,3.02
2019-02-08T19:30:41.863Z,3.03
2019-02-08T19:33:11.600Z,2.77
2019-02-08T19:35:40.238Z,2.85
2019-02-08T19:38:09.074Z,2.97
2019-02-08T19:40:46.876Z,2.94
2019-02-08T19:43:15.496Z,2.79
2019-02-08T19:45:44.114Z,2.35
2019-02-08T19:48:12.729Z,2.25
2019-02-08T19:50:43.010Z,2.14
2019-02-08T19:53:11.848Z,2.15
2019-02-08T19:55:40.636Z,2.24
2019-02-08T19:58:10.576Z,2.48
2019-02-08T20:00:44.129Z,2.33
2019-02-08T20:03:12.711Z,2.28
2019-02-08T20:05:41.294Z,2.36
2019-02-08T20:08:12.333Z,2.31
2019-02-08T20:10:43.414Z,2.29
2019-02-08T20:13:11.997Z,2.42
2019-02-08T20:15:40.576Z,2.48
2019-02-08T20:18:09.944Z,2.45
2019-02-08T20:20:38.564Z,2.42
2019-02-08T20:23:07.997Z,2.39
2019-02-08T20:25:37.217Z,2.35
2019-02-08T20:28:06.619Z,2.36
2019-02-08T20:30:35.233Z,2.23
2019-02-08T20:33:03.847Z,2.19
2019-02-08T20:35:32.487Z,2.28
2019-02-08T20:38:01.473Z,2.25
2019-02-08T20:40:35.134Z,2.26
2019-02-08T20:43:03.713Z,2.21
2019-02-08T20:45:33.579Z,2.29
2019-02-08T20:48:04.527Z,2.42
2019-02-08T20:50:33.122Z,2.42
2019-02-08T20:53:01.805Z,2.47
2019-02-08T20:55:31.071Z,2.42
2019-02-08T20:57:59.642Z,2.42
2019-02-08T21:00:31.799Z,2.62
2019-02-08T21:03:00.903Z,2.44
2019-02-08T21:05:30.524Z,2.43
2019-02-08T21:07:59.146Z,2.58
2019-02-08T21:10:27.830Z,2.45
2019-02-08T21:12:56.455Z,2.39
2019-02-08T21:15:25.204Z,2.31
2019-02-08T21:17:53.788Z,2.33
2019-02-08T21:20:22.372Z,2.34
2019-02-08T21:22:51.057Z,2.45
2019-02-08T21:25:28.869Z,2.36
2019-02-08T21:27:57.463Z,2.41
2019-02-08T21:30:26.042Z,2.36
2019-02-08T21:32:54.675Z,2.36
2019-02-08T21:35:23.293Z,2.42
2019-02-08T21:37:51.868Z,2.52
2019-02-08T21:40:22.911Z,2.54
2019-02-08T21:42:51.564Z,2.65
2019-02-08T21:45:23.301Z,2.63
2019-02-08T21:47:51.898Z,2.59
2019-02-08T21:50:21.691Z,2.44
2019-02-08T21:52:50.287Z,2.36
2019-02-08T21:55:23.412Z,2.39
2019-02-08T21:57:51.998Z,2.44
2019-02-08T22:00:22.374Z,2.49
2019-02-08T22:02:50.963Z,2.36
2019-02-08T22:05:22.431Z,2.19
2019-02-08T22:07:51.010Z,2.13
2019-02-08T22:10:19.595Z,1.98
2019-02-08T22:12:48.180Z,1.89
2019-02-08T22:15:19.504Z,2.04
2019-02-08T22:17:48.120Z,2.01
2019-02-08T22:20:19.846Z,2.15
2019-02-08T22:22:48.518Z,2.29
2019-02-08T22:25:19.656Z,2.04
2019-02-08T22:27:48.419Z,2.12
2019-02-08T22:30:20.115Z,2.21
2019-02-08T22:32:49.398Z,2.32
2019-02-08T22:35:18.987Z,2.33
2019-02-08T22:37:47.568Z,2.46
2019-02-08T22:40:19.265Z,2.26
2019-02-08T22:42:47.844Z,2.17
2019-02-08T22:45:40.593Z,2.14
2019-02-08T22:48:09.517Z,2.07
2019-02-08T22:50:38.096Z,2.17
2019-02-08T22:53:07.570Z,2.17
2019-02-08T22:55:36.652Z,2.12
2019-02-08T22:58:06.836Z,2.14
2019-02-08T23:00:39.870Z,2.30
2019-02-08T23:03:11.141Z,2.41
2019-02-08T23:05:45.355Z,2.31
2019-02-08T23:08:11.016Z,2.23
2019-02-08T23:10:39.600Z,2.38
2019-02-08T23:13:11.321Z,2.43
2019-02-08T23:15:39.969Z,2.32
2019-02-08T23:18:12.276Z,2.25
2019-02-08T23:20:40.858Z,2.31
2019-02-08T23:23:09.551Z,2.72
2019-02-08T23:25:38.302Z,2.86
2019-02-08T23:28:07.166Z,3.00
2019-02-08T23:30:35.878Z,3.05
2019-02-08T23:33:04.959Z,3.30
2019-02-08T23:35:33.545Z,3.32
2019-02-08T23:38:02.123Z,3.29
2019-02-08T23:40:30.706Z,3.34
2019-02-08T23:42:59.283Z,3.21
2019-02-08T23:45:27.876Z,3.20
2019-02-08T23:47:56.467Z,3.19
2019-02-08T23:50:25.795Z,3.04
2019-02-08T23:52:54.375Z,2.93
2019-02-08T23:55:24.351Z,2.77
2019-02-08T23:57:52.972Z,2.52
